Airfield :
LOGIN :

Register | Disclaimer

   EN    FR    IT 

 










Legend :    VFR   Marginal VFR   IFR   Intensive IFR   Very Intensive IFR
Visi :
Ceiling :
>= 8 km
>= 3000ft
5 to 8 km
1000 to 3000 ft
1500m to 5 km
500 to 1000 ft
800 to 1500m
200 to 500 ft
< 800m
< 200 ft
Symbols :   Thunderstorms  Fog  Heavy snow  Heavy precipitations  Wind > 20 kt
SIGMETs :     Misc.  Thunderstorms  Icing  Turbulence  Mountain Waves  Volcanic Ashes






- Airport Elevation : 102 ft
- IATA code : EXT


EGTE - Exeter

CURRENT METAR :
  • 142120Z 28007KT 260V320 9999 FEW015 SCT020 14/11 Q1018

EXPIRED METARs :
  • 142050Z 30009KT 9999 SCT018 14/11 Q1018
  • 142020Z 30010KT 9999 SCT018 14/10 Q1018
  • 141950Z 30013KT 9999 SCT032 14/10 Q1018
  • 141920Z 29009KT 9999 SCT032 15/10 Q1018
  • 141850Z 30013KT 9999 SCT035 15/10 Q1018

TAF TAF EGTE
Valid from the 14 at 21:00 until the 15 at 02:00 UTC


142005Z 1421/1502 30008KT 9999 SCT035
TEMPO 1421/1502 8000 -RA BKN014
PROB30
TEMPO 1421/1502 BKN009



MET'MAP, your aeronautical weather chart ! - Copyright ORBIFLY December 2007 - Disclaimer

ORBIFLY MET'MAP TEAM :

Programming & Development : Alexandra Zaïnal
Concept & original design : Baudouin d'Aumeries
Assistance for programming : Marc-Olivier Méhu
Technical & hardware support : Manuel Goepfert

Contact : metmap@orbifly.com




SOURCES & CREDITS :

   NOAA